createdAt,value
2022-12-12T00:00:41.711Z,6.64
2022-12-12T00:03:08.670Z,6.48
2022-12-12T00:05:35.540Z,6.43
2022-12-12T00:08:02.282Z,6.72
2022-12-12T00:10:29.542Z,6.55
2022-12-12T00:12:56.313Z,6.67
2022-12-12T00:15:23.417Z,6.96
2022-12-12T00:17:50.082Z,6.94
2022-12-12T00:20:17.076Z,6.84
2022-12-12T00:22:43.854Z,7.07
2022-12-12T00:25:11.096Z,7.27
2022-12-12T00:27:38.610Z,7.09
2022-12-12T00:30:07.026Z,7.11
2022-12-12T00:32:34.279Z,7.03
2022-12-12T00:35:00.968Z,6.79
2022-12-12T00:37:27.865Z,7.08
2022-12-12T00:39:54.570Z,7.18
2022-12-12T00:42:21.532Z,7.17
2022-12-12T00:44:48.256Z,6.90
2022-12-12T00:47:15.970Z,6.93
2022-12-12T00:49:42.747Z,6.76
2022-12-12T00:52:09.819Z,6.71
2022-12-12T00:54:36.552Z,6.67
2022-12-12T00:57:03.464Z,6.71
2022-12-12T00:59:30.584Z,6.46
2022-12-12T01:01:57.588Z,6.65
2022-12-12T01:04:24.292Z,6.80
2022-12-12T01:06:51.218Z,6.83
2022-12-12T01:09:17.885Z,6.66
2022-12-12T01:11:44.918Z,6.69
2022-12-12T01:14:11.645Z,6.66
2022-12-12T01:16:38.444Z,6.50
2022-12-12T01:19:05.161Z,6.80
2022-12-12T01:21:31.999Z,6.79
2022-12-12T01:23:58.792Z,6.92
2022-12-12T01:26:25.709Z,6.50
2022-12-12T01:28:53.582Z,6.51
2022-12-12T01:31:21.471Z,6.72
2022-12-12T01:33:48.721Z,6.94
2022-12-12T01:36:17.606Z,6.71
2022-12-12T01:38:50.064Z,6.63
2022-12-12T01:41:17.571Z,6.74
2022-12-12T01:43:45.014Z,6.57
2022-12-12T01:46:30.745Z,6.53
2022-12-12T01:49:13.250Z,6.65
2022-12-12T01:51:41.718Z,6.57
2022-12-12T01:54:15.554Z,6.51
2022-12-12T01:56:44.492Z,6.42
2022-12-12T01:59:13.977Z,6.64
2022-12-12T02:01:41.343Z,6.71
2022-12-12T02:04:10.690Z,6.55
2022-12-12T02:06:38.352Z,6.38
2022-12-12T02:09:09.728Z,6.44
2022-12-12T02:11:43.608Z,6.41
2022-12-12T02:14:12.180Z,6.57
2022-12-12T02:16:41.655Z,6.68
2022-12-12T02:19:26.345Z,6.67
2022-12-12T02:22:06.256Z,6.79
2022-12-12T02:24:42.466Z,6.47
2022-12-12T02:27:35.591Z,6.51
2022-12-12T02:30:19.486Z,6.42
2022-12-12T02:32:58.562Z,6.37
2022-12-12T02:36:13.860Z,6.61
2022-12-12T02:39:16.274Z,6.59
2022-12-12T02:41:53.868Z,6.59
2022-12-12T02:44:41.151Z,6.64
2022-12-12T02:47:32.528Z,6.15
2022-12-12T02:50:08.172Z,5.57
2022-12-12T02:52:36.481Z,5.79
2022-12-12T02:55:04.519Z,5.85
2022-12-12T02:57:31.305Z,5.69
2022-12-12T03:00:08.964Z,5.95
2022-12-12T03:03:32.022Z,6.01
2022-12-12T03:06:36.358Z,6.18
2022-12-12T03:09:25.647Z,6.14
2022-12-12T03:12:03.867Z,5.90
2022-12-12T03:14:52.485Z,6.00
2022-12-12T03:17:56.695Z,6.14
2022-12-12T03:20:40.710Z,6.04
2022-12-12T03:23:15.441Z,6.17
2022-12-12T03:25:53.060Z,5.94
2022-12-12T03:28:28.693Z,5.85
2022-12-12T03:30:59.019Z,5.66
2022-12-12T03:33:48.953Z,5.43
2022-12-12T03:36:27.276Z,5.43
2022-12-12T03:39:03.117Z,5.23
2022-12-12T03:41:37.185Z,5.14
2022-12-12T03:44:11.555Z,5.26
2022-12-12T03:46:48.495Z,5.28
2022-12-12T03:49:27.345Z,5.56
2022-12-12T03:52:03.466Z,5.71
2022-12-12T03:54:36.599Z,5.52
2022-12-12T03:57:15.787Z,5.28
2022-12-12T03:59:47.665Z,5.39
2022-12-12T04:02:24.362Z,5.34
2022-12-12T04:05:00.839Z,5.26
2022-12-12T04:07:34.496Z,5.45
2022-12-12T04:10:20.005Z,5.74
2022-12-12T04:13:06.923Z,4.81
2022-12-12T04:15:57.436Z,5.10
2022-12-12T04:19:02.733Z,4.89
2022-12-12T04:21:58.643Z,5.08
2022-12-12T04:24:43.937Z,5.23
2022-12-12T04:27:20.774Z,5.27
2022-12-12T04:30:07.696Z,5.35
2022-12-12T04:32:37.910Z,5.42
2022-12-12T04:35:15.983Z,5.48
2022-12-12T04:37:48.189Z,5.18
2022-12-12T04:40:24.409Z,5.16
2022-12-12T04:42:56.318Z,5.24
2022-12-12T04:45:28.742Z,5.34
2022-12-12T04:47:57.589Z,4.76
2022-12-12T04:50:28.455Z,4.91
2022-12-12T04:52:57.999Z,5.18
2022-12-12T04:55:30.093Z,5.06
2022-12-12T04:57:57.383Z,4.93
2022-12-12T05:00:27.824Z,5.16
2022-12-12T05:03:08.465Z,4.93
2022-12-12T05:05:50.090Z,4.41
2022-12-12T05:08:22.694Z,4.95
2022-12-12T05:10:59.386Z,5.04
2022-12-12T05:13:32.813Z,4.86
2022-12-12T05:16:02.574Z,5.10
2022-12-12T05:18:30.586Z,4.98
2022-12-12T05:20:57.655Z,5.06
2022-12-12T05:23:24.383Z,4.81
2022-12-12T05:25:51.227Z,4.40
2022-12-12T05:28:18.063Z,4.82
2022-12-12T05:30:44.840Z,4.67
2022-12-12T05:33:11.657Z,5.00
2022-12-12T05:35:38.440Z,4.60
2022-12-12T05:38:05.499Z,5.04
2022-12-12T05:40:32.369Z,5.23
2022-12-12T05:42:59.279Z,5.31
2022-12-12T05:45:25.975Z,4.48
2022-12-12T05:47:55.198Z,4.86
2022-12-12T05:50:22.200Z,4.89
2022-12-12T05:52:49.624Z,4.75
2022-12-12T05:55:16.541Z,5.32
2022-12-12T05:57:43.529Z,5.32
2022-12-12T06:00:10.712Z,5.53
2022-12-12T06:02:37.525Z,5.53
2022-12-12T06:05:04.802Z,5.56
2022-12-12T06:07:31.642Z,5.71
2022-12-12T06:09:58.628Z,5.67
2022-12-12T06:12:25.409Z,5.76
2022-12-12T06:14:52.191Z,5.77
2022-12-12T06:17:18.996Z,5.87
2022-12-12T06:19:45.960Z,5.73
2022-12-12T06:22:12.875Z,5.71
2022-12-12T06:24:40.010Z,5.86
2022-12-12T06:27:06.944Z,5.99
2022-12-12T06:29:33.799Z,5.95
2022-12-12T06:32:00.561Z,6.00
2022-12-12T06:34:27.522Z,5.89
2022-12-12T06:36:54.174Z,6.14
2022-12-12T06:39:20.959Z,6.20
2022-12-12T06:41:47.704Z,6.12
2022-12-12T06:44:14.829Z,6.02
2022-12-12T06:46:42.130Z,5.93
2022-12-12T06:49:10.275Z,5.95
2022-12-12T06:51:44.222Z,6.28
2022-12-12T06:54:13.571Z,6.30
2022-12-12T06:56:47.781Z,5.97
2022-12-12T06:59:16.581Z,6.20
2022-12-12T07:01:43.924Z,5.54
2022-12-12T07:04:12.254Z,6.18
2022-12-12T07:06:39.139Z,5.53
2022-12-12T07:09:06.324Z,5.85
2022-12-12T07:11:33.562Z,6.06
2022-12-12T07:14:03.777Z,6.17
2022-12-12T07:16:30.452Z,5.40
2022-12-12T07:18:58.264Z,6.09
2022-12-12T07:21:25.612Z,5.95
2022-12-12T07:23:52.647Z,5.97
2022-12-12T07:26:22.379Z,6.22
2022-12-12T07:28:50.807Z,6.25
2022-12-12T07:31:20.890Z,6.11
2022-12-12T07:33:47.794Z,6.19
2022-12-12T07:36:16.450Z,6.17
2022-12-12T07:38:44.573Z,6.00
2022-12-12T07:41:17.706Z,5.98
2022-12-12T07:43:48.022Z,6.11
2022-12-12T07:46:20.382Z,6.34
2022-12-12T07:48:48.112Z,5.98
2022-12-12T07:51:15.667Z,6.27
2022-12-12T07:53:42.927Z,6.32
2022-12-12T07:56:12.318Z,6.38
2022-12-12T07:58:40.156Z,6.14
2022-12-12T08:01:21.166Z,6.31
2022-12-12T08:03:49.256Z,6.49
2022-12-12T08:06:19.168Z,6.72
2022-12-12T08:08:47.508Z,6.87
2022-12-12T08:11:17.045Z,6.86
2022-12-12T08:13:44.098Z,6.86
2022-12-12T08:16:23.476Z,6.81
2022-12-12T08:18:53.106Z,6.88
2022-12-12T08:21:25.137Z,6.80
2022-12-12T08:23:56.751Z,6.99
2022-12-12T08:26:23.817Z,7.20
2022-12-12T08:28:50.531Z,7.11
2022-12-12T08:31:18.282Z,7.27
2022-12-12T08:33:45.764Z,7.36
2022-12-12T08:36:24.040Z,7.26
2022-12-12T08:38:51.489Z,7.17
2022-12-12T08:41:18.793Z,7.39
2022-12-12T08:43:45.949Z,7.43
2022-12-12T08:46:17.722Z,7.14
2022-12-12T08:48:46.196Z,7.13
2022-12-12T08:51:13.835Z,7.39
2022-12-12T08:53:43.168Z,7.33
2022-12-12T08:56:09.878Z,7.37
2022-12-12T08:58:36.765Z,7.35
2022-12-12T09:01:03.839Z,7.61
2022-12-12T09:03:30.793Z,7.47
2022-12-12T09:05:57.568Z,7.52
2022-12-12T09:08:24.678Z,7.37
2022-12-12T09:10:51.597Z,7.38
2022-12-12T09:13:20.913Z,7.33
2022-12-12T09:15:51.194Z,7.38
2022-12-12T09:18:21.721Z,7.37
2022-12-12T09:20:53.058Z,6.93
2022-12-12T09:23:21.440Z,6.97
2022-12-12T09:25:48.715Z,7.36
2022-12-12T09:28:17.582Z,7.12
2022-12-12T09:30:45.974Z,7.73
2022-12-12T09:33:13.912Z,7.08
2022-12-12T09:35:40.910Z,6.96
2022-12-12T09:38:14.010Z,7.35
2022-12-12T09:40:56.312Z,7.73
2022-12-12T09:43:29.831Z,7.30
2022-12-12T09:45:57.546Z,7.28
2022-12-12T09:48:28.193Z,7.58
2022-12-12T09:50:55.223Z,7.72
2022-12-12T09:53:25.558Z,7.83
2022-12-12T09:56:06.091Z,8.12
2022-12-12T09:59:16.176Z,8.14
2022-12-12T10:01:54.659Z,8.21
2022-12-12T10:04:24.665Z,8.00
2022-12-12T10:06:58.974Z,7.85
2022-12-12T10:09:42.672Z,7.99
2022-12-12T10:12:15.465Z,7.73
2022-12-12T10:14:47.990Z,8.04
2022-12-12T10:17:37.630Z,8.11
2022-12-12T10:20:29.767Z,8.21
2022-12-12T10:22:59.849Z,7.97
2022-12-12T10:25:56.467Z,7.96
2022-12-12T10:28:28.670Z,8.13
2022-12-12T10:31:05.123Z,8.36
2022-12-12T10:33:56.420Z,8.51
2022-12-12T10:36:41.491Z,8.29
2022-12-12T10:39:24.492Z,8.15
2022-12-12T10:42:19.798Z,8.39
2022-12-12T10:45:18.633Z,8.71
2022-12-12T10:47:47.039Z,8.62
2022-12-12T10:50:58.588Z,8.89
2022-12-12T10:53:25.352Z,9.37
2022-12-12T10:55:56.642Z,9.03
2022-12-12T10:58:28.573Z,8.94
2022-12-12T11:01:04.061Z,8.94
2022-12-12T11:03:41.700Z,9.11
2022-12-12T11:06:14.649Z,9.29
2022-12-12T11:08:53.905Z,9.25
2022-12-12T11:11:24.157Z,9.01
2022-12-12T11:13:52.480Z,8.87
2022-12-12T11:16:23.974Z,9.15
2022-12-12T11:19:07.054Z,9.30
2022-12-12T11:21:36.712Z,9.29
2022-12-12T11:24:09.011Z,9.42
2022-12-12T11:27:07.210Z,9.08
2022-12-12T11:29:45.213Z,9.49
2022-12-12T11:32:27.409Z,9.25
2022-12-12T11:35:01.344Z,9.39
2022-12-12T11:37:39.286Z,9.29
2022-12-12T11:40:19.469Z,9.59
2022-12-12T11:42:46.656Z,9.15
2022-12-12T11:45:13.597Z,9.20
2022-12-12T11:47:46.620Z,9.40
2022-12-12T11:50:29.534Z,9.09
2022-12-12T11:53:00.556Z,9.05
2022-12-12T11:55:54.846Z,9.40
2022-12-12T11:58:38.655Z,9.75
2022-12-12T12:01:17.593Z,9.81
2022-12-12T12:04:04.741Z,9.60
2022-12-12T12:06:34.386Z,9.85
2022-12-12T12:09:24.441Z,9.85
2022-12-12T12:12:03.300Z,9.74
2022-12-12T12:14:58.296Z,10.17
2022-12-12T12:17:40.120Z,10.48
2022-12-12T12:20:52.263Z,10.55
2022-12-12T12:23:52.606Z,11.06
2022-12-12T12:27:04.175Z,11.42
2022-12-12T12:29:44.218Z,11.14
2022-12-12T12:32:24.269Z,10.84
2022-12-12T12:35:09.490Z,10.72
2022-12-12T12:38:03.791Z,11.17
2022-12-12T12:40:42.345Z,11.16
2022-12-12T12:43:22.672Z,10.91
2022-12-12T12:46:03.938Z,10.66
2022-12-12T12:48:39.412Z,9.98
2022-12-12T12:51:27.617Z,10.34
2022-12-12T12:54:22.046Z,10.34
2022-12-12T12:57:14.913Z,10.05
2022-12-12T12:59:47.482Z,9.86
2022-12-12T13:02:27.533Z,10.06
2022-12-12T13:05:07.196Z,9.36
2022-12-12T13:07:52.138Z,9.71
2022-12-12T13:10:23.787Z,9.29
2022-12-12T13:13:11.696Z,9.66
2022-12-12T13:15:49.097Z,9.88
2022-12-12T13:18:18.085Z,9.80
2022-12-12T13:20:51.615Z,9.78
2022-12-12T13:23:40.163Z,10.11
2022-12-12T13:26:27.157Z,10.04
2022-12-12T13:29:24.141Z,10.09
2022-12-12T13:32:18.002Z,10.17
2022-12-12T13:34:51.528Z,9.97
2022-12-12T13:37:21.758Z,9.92
2022-12-12T13:39:59.607Z,9.67
2022-12-12T13:42:26.492Z,9.84
2022-12-12T13:44:53.390Z,9.91
2022-12-12T13:47:22.890Z,9.55
2022-12-12T13:50:00.570Z,9.35
2022-12-12T13:52:28.632Z,9.31
2022-12-12T13:55:18.414Z,9.69
2022-12-12T13:57:57.283Z,9.70
2022-12-12T14:00:25.934Z,9.30
2022-12-12T14:03:11.895Z,9.48
2022-12-12T14:05:41.257Z,9.16
2022-12-12T14:08:10.893Z,9.28
2022-12-12T14:10:49.774Z,9.15
2022-12-12T14:13:30.554Z,9.11
2022-12-12T14:15:57.237Z,9.14
2022-12-12T14:18:30.333Z,9.35
2022-12-12T14:21:05.945Z,9.14
2022-12-12T14:23:42.129Z,8.98
2022-12-12T14:26:27.625Z,9.12
2022-12-12T14:29:16.341Z,9.03
2022-12-12T14:31:52.994Z,9.10
2022-12-12T14:34:50.994Z,9.06
2022-12-12T14:37:33.103Z,9.12
2022-12-12T14:40:30.810Z,9.23
2022-12-12T14:43:20.521Z,9.07
2022-12-12T14:45:50.595Z,9.08
2022-12-12T14:48:34.880Z,9.26
2022-12-12T14:51:29.434Z,9.34
2022-12-12T14:53:58.991Z,9.20
2022-12-12T14:56:39.583Z,8.89
2022-12-12T14:59:14.080Z,9.09
2022-12-12T15:01:44.984Z,9.16
2022-12-12T15:04:33.013Z,9.13
2022-12-12T15:07:02.542Z,8.75
2022-12-12T15:09:30.610Z,8.67
2022-12-12T15:12:21.319Z,8.26
2022-12-12T15:14:48.132Z,8.37
2022-12-12T15:17:27.208Z,8.38
2022-12-12T15:19:56.922Z,8.34
2022-12-12T15:22:25.593Z,8.30
2022-12-12T15:24:53.897Z,8.35
2022-12-12T15:27:46.942Z,8.03
2022-12-12T15:30:23.835Z,7.98
2022-12-12T15:32:51.008Z,8.18
2022-12-12T15:35:21.673Z,8.22
2022-12-12T15:37:58.601Z,8.17
2022-12-12T15:40:35.755Z,7.90
2022-12-12T15:43:07.504Z,7.83
2022-12-12T15:45:41.562Z,8.02
2022-12-12T15:48:15.636Z,8.03
2022-12-12T15:50:42.660Z,7.92
2022-12-12T15:53:31.544Z,7.84
2022-12-12T15:56:07.851Z,8.09
2022-12-12T15:58:41.211Z,8.29
2022-12-12T16:01:21.386Z,8.45
2022-12-12T16:04:04.009Z,8.17
2022-12-12T16:06:34.262Z,8.09
2022-12-12T16:09:07.277Z,7.94
2022-12-12T16:11:47.442Z,7.52
2022-12-12T16:14:23.929Z,7.35
2022-12-12T16:17:09.909Z,7.38
2022-12-12T16:19:40.811Z,7.10
2022-12-12T16:22:16.317Z,6.90
2022-12-12T16:25:12.280Z,7.01
2022-12-12T16:27:39.099Z,7.21
2022-12-12T16:30:06.305Z,7.01
2022-12-12T16:32:34.701Z,6.66
2022-12-12T16:35:01.381Z,6.50
2022-12-12T16:37:28.224Z,6.49
2022-12-12T16:39:55.192Z,6.46
2022-12-12T16:42:24.093Z,6.42
2022-12-12T16:44:50.860Z,6.27
2022-12-12T16:47:24.783Z,6.28
2022-12-12T16:49:51.830Z,6.07
2022-12-12T16:52:21.780Z,6.16
2022-12-12T16:54:53.683Z,5.99
2022-12-12T16:57:21.892Z,5.57
2022-12-12T16:59:48.794Z,5.77
2022-12-12T17:02:24.088Z,5.67
2022-12-12T17:04:51.806Z,5.88
2022-12-12T17:07:18.636Z,5.90
2022-12-12T17:09:45.421Z,5.66
2022-12-12T17:12:13.312Z,5.88
2022-12-12T17:14:40.310Z,6.05
2022-12-12T17:17:07.100Z,5.81
2022-12-12T17:19:34.159Z,5.66
2022-12-12T17:22:01.213Z,5.26
2022-12-12T17:24:28.588Z,5.36
2022-12-12T17:26:55.549Z,5.52
2022-12-12T17:29:22.642Z,5.40
2022-12-12T17:31:50.761Z,5.39
2022-12-12T17:34:17.535Z,5.06
2022-12-12T17:36:44.399Z,4.98
2022-12-12T17:39:11.496Z,4.94
2022-12-12T17:41:38.421Z,4.59
2022-12-12T17:44:05.469Z,4.51
2022-12-12T17:46:32.519Z,3.94
2022-12-12T17:48:59.505Z,4.24
2022-12-12T17:51:26.215Z,4.18
2022-12-12T17:53:53.055Z,3.79
2022-12-12T17:56:22.542Z,3.81
2022-12-12T17:58:50.319Z,3.92
2022-12-12T18:01:29.293Z,4.12
2022-12-12T18:03:56.418Z,3.89
2022-12-12T18:06:23.599Z,3.78
2022-12-12T18:08:52.390Z,3.78
2022-12-12T18:11:24.599Z,3.63
2022-12-12T18:13:53.012Z,3.75
2022-12-12T18:16:21.327Z,3.93
2022-12-12T18:18:50.533Z,4.00
2022-12-12T18:21:51.813Z,3.51
2022-12-12T18:24:09.646Z,3.41
2022-12-12T18:26:36.385Z,3.90
2022-12-12T18:29:06.025Z,3.45
2022-12-12T18:31:33.944Z,3.57
2022-12-12T18:34:01.211Z,3.39
2022-12-12T18:36:29.601Z,3.74
2022-12-12T18:38:57.440Z,3.82
2022-12-12T18:41:26.383Z,3.75
2022-12-12T18:43:54.390Z,3.73
2022-12-12T18:46:24.815Z,3.90
2022-12-12T18:48:51.790Z,3.71
2022-12-12T18:51:22.455Z,4.17
2022-12-12T18:53:50.636Z,4.31
2022-12-12T18:56:20.638Z,4.14
2022-12-12T18:58:47.790Z,3.96
2022-12-12T19:01:20.101Z,4.32
2022-12-12T19:03:50.301Z,4.09
2022-12-12T19:06:22.356Z,3.61
2022-12-12T19:08:49.448Z,3.89
2022-12-12T19:11:17.104Z,3.77
2022-12-12T19:13:44.908Z,3.49
2022-12-12T19:16:21.234Z,3.85
2022-12-12T19:18:48.582Z,4.14
2022-12-12T19:21:18.938Z,4.10
2022-12-12T19:23:46.291Z,4.14
2022-12-12T19:26:16.589Z,3.83
2022-12-12T19:28:43.879Z,3.96
2022-12-12T19:31:15.097Z,4.31
2022-12-12T19:33:43.317Z,4.15
2022-12-12T19:36:12.922Z,4.32
2022-12-12T19:38:40.207Z,4.30
2022-12-12T19:41:08.709Z,4.21
2022-12-12T19:43:36.074Z,3.80
2022-12-12T19:46:13.745Z,4.02
2022-12-12T19:48:40.556Z,4.23
2022-12-12T19:51:16.865Z,4.09
2022-12-12T19:53:49.591Z,4.24
2022-12-12T19:56:23.779Z,4.29
2022-12-12T19:58:51.276Z,4.27
2022-12-12T20:01:21.736Z,4.36
2022-12-12T20:03:53.969Z,4.17
2022-12-12T20:06:21.576Z,3.94
2022-12-12T20:08:48.801Z,3.69
2022-12-12T20:11:18.256Z,3.82
2022-12-12T20:13:50.101Z,4.20
2022-12-12T20:16:18.956Z,4.16
2022-12-12T20:18:52.609Z,3.94
2022-12-12T20:21:51.665Z,4.16
2022-12-12T20:24:09.947Z,4.51
2022-12-12T20:26:37.296Z,4.53
2022-12-12T20:29:04.315Z,4.58
2022-12-12T20:31:34.274Z,4.43
2022-12-12T20:34:01.460Z,4.09
2022-12-12T20:36:34.521Z,4.32
2022-12-12T20:39:07.186Z,4.22
2022-12-12T20:41:37.834Z,4.23
2022-12-12T20:44:06.078Z,4.03
2022-12-12T20:46:39.357Z,3.98
2022-12-12T20:49:11.658Z,4.07
2022-12-12T20:51:55.852Z,3.24
2022-12-12T20:54:24.501Z,3.31
2022-12-12T20:56:52.454Z,3.52
2022-12-12T20:59:19.361Z,3.64
2022-12-12T21:01:47.758Z,3.32
2022-12-12T21:04:15.770Z,3.30
2022-12-12T21:06:44.972Z,3.41
2022-12-12T21:09:16.282Z,3.31
2022-12-12T21:11:46.452Z,3.37
2022-12-12T21:14:13.180Z,3.46
2022-12-12T21:16:41.263Z,3.15
2022-12-12T21:19:11.816Z,2.77
2022-12-12T21:21:39.734Z,2.54
2022-12-12T21:24:06.849Z,2.74
2022-12-12T21:26:33.960Z,2.51
2022-12-12T21:29:02.083Z,2.61
2022-12-12T21:31:32.452Z,2.49
2022-12-12T21:33:59.931Z,2.56
2022-12-12T21:36:28.412Z,2.39
2022-12-12T21:38:57.270Z,2.25
2022-12-12T21:41:24.526Z,2.34
2022-12-12T21:43:52.560Z,2.36
2022-12-12T21:46:25.666Z,2.47
2022-12-12T21:49:22.950Z,2.67
2022-12-12T21:51:49.737Z,2.50
2022-12-12T21:54:16.536Z,2.59
2022-12-12T21:56:43.968Z,2.52
2022-12-12T21:59:12.399Z,2.57
2022-12-12T22:01:39.826Z,2.03
2022-12-12T22:04:07.329Z,1.87
2022-12-12T22:06:35.989Z,2.46
2022-12-12T22:09:06.143Z,2.36
2022-12-12T22:11:41.605Z,2.33
2022-12-12T22:14:17.935Z,2.36
2022-12-12T22:16:45.131Z,2.35
2022-12-12T22:19:13.936Z,2.95
2022-12-12T22:21:41.022Z,2.45
2022-12-12T22:24:08.302Z,2.64
2022-12-12T22:26:38.239Z,2.35
2022-12-12T22:29:16.713Z,2.35
2022-12-12T22:31:44.887Z,2.45
2022-12-12T22:34:15.781Z,2.16
2022-12-12T22:36:43.093Z,2.15
2022-12-12T22:39:17.866Z,1.94
2022-12-12T22:41:45.178Z,1.93
2022-12-12T22:44:15.929Z,1.99
2022-12-12T22:46:44.692Z,2.08
2022-12-12T22:49:14.351Z,2.28
2022-12-12T22:51:41.742Z,2.01
2022-12-12T22:54:08.887Z,2.22
2022-12-12T22:56:37.456Z,2.31
2022-12-12T22:59:05.337Z,2.13
2022-12-12T23:01:32.954Z,2.02
2022-12-12T23:04:00.166Z,2.14
2022-12-12T23:06:35.433Z,2.59
2022-12-12T23:09:16.598Z,2.65
2022-12-12T23:11:44.390Z,2.42
2022-12-12T23:14:17.192Z,2.22
2022-12-12T23:16:45.096Z,2.02
2022-12-12T23:19:15.391Z,1.74
2022-12-12T23:21:42.400Z,1.88
2022-12-12T23:24:09.605Z,2.13
2022-12-12T23:26:37.168Z,2.06
2022-12-12T23:29:09.435Z,2.23
2022-12-12T23:31:37.704Z,2.02
2022-12-12T23:34:08.197Z,2.01
2022-12-12T23:36:35.123Z,2.14
2022-12-12T23:39:06.294Z,1.97
2022-12-12T23:41:33.575Z,2.24
2022-12-12T23:44:00.664Z,2.16
2022-12-12T23:46:31.871Z,2.54
2022-12-12T23:48:59.594Z,2.42
2022-12-12T23:51:27.946Z,2.53
2022-12-12T23:53:57.757Z,2.44
2022-12-12T23:56:25.127Z,2.39
2022-12-12T23:58:53.844Z,2.58
